KGEZ

Shelbyville Municipal Airport

Shelbyville, Indiana, USA
METAR KGEZ 221353Z AUTO 20009KT 10SM CLR 07/00 A3018 RMK AO2 SLP224 T00670000
Observed Flight Rules
Oct-22 @ 13:53 UTC (56 minutes ago) Visual Flight Rules
Wind Visibility Clouds
200° at 9 knots 10 miles
  • Clear skies
Temperatures Readings
Current 7°C / 45°F
Dewpoint 0°C / 32°F
Humidity 61%
Altimeter 30.18" Hg
Pressure 1022.4 hPa
Elevation 245
METAR KGEZ 221353Z AUTO 20009KT 10SM CLR 07/00 A3018 RMK AO2 SLP224 T00670000
Observed Flight Rules
Oct-22 @ 13:53 UTC
(56 minutes ago)
VFR
Wind Visibility
200° at 9 knots 10 miles
Clouds
  • Clear skies
Temperature Dewpoint
7°C / 45°F 0°C / 32°F
Humidity Altimeter Pressure
61% 30.18" Hg 1022.4 hPa